Time;durP1;ratioP1;P1;durP2;ratioP2;P2;SDS_P1;SDS_P2;PMS_P1;PMS_P2;Temp;Humidity;BMP_temperature;BMP_pressure;BME280_temperature;BME280_humidity;BME280_pressure;Samples;Min_cycle;Max_cycle;Signal;HPM_P1;HPM_P2
2022/09/28 00:02:49;;;;;;;6.27;5.67;;;;;;;;;;5055400;28;20477;-73
2022/09/28 00:05:54;;;;;;;6.03;5.43;;;;;;;;;;5055621;28;20509;-72
2022/09/28 00:08:58;;;;;;;6.90;5.50;;;;;;;;;;5050318;28;20983;-73
2022/09/28 00:12:17;;;;;;;5.87;5.37;;;;;;;;;;5055273;28;20475;-73
2022/09/28 00:15:30;;;;;;;6.10;5.50;;;;;;;;;;5053544;28;20469;-73
2022/09/28 00:18:30;;;;;;;6.07;5.53;;;;;;;;;;5056953;28;20450;-73
2022/09/28 00:21:36;;;;;;;6.70;5.20;;;;;;;;;;5051958;28;20577;-73
2022/09/28 00:24:32;;;;;;;5.73;5.23;;;;;;;;;;5057377;22;20989;-65
2022/09/28 00:27:51;;;;;;;;;;;;;;;;;;;;;
2022/09/28 00:30:55;;;;;;;6.70;6.07;;;;;;;;;;5002341;28;20579;-66
2022/09/28 00:34:04;;;;;;;8.20;6.10;;;;;;;;;;5030366;28;20466;-65
2022/09/28 00:37:01;;;;;;;5.90;5.40;;;;;;;;;;5049638;28;20482;-66
2022/09/28 00:43:34;;;;;;;7.43;6.70;;;;;;;;;;5059976;28;20638;-66
2022/09/28 00:46:32;;;;;;;6.90;6.30;;;;;;;;;;4995241;28;20571;-65
2022/09/28 00:49:42;;;;;;;6.53;5.93;;;;;;;;;;5054398;28;20466;-66
2022/09/28 00:52:52;;;;;;;7.27;6.67;;;;;;;;;;5052585;28;20450;-64
2022/09/28 00:56:07;;;;;;;6.80;6.20;;;;;;;;;;5037260;28;20520;-65
2022/09/28 00:59:23;;;;;;;8.53;6.33;;;;;;;;;;5053503;28;20837;-65
2022/09/28 01:02:28;;;;;;;7.27;6.57;;;;;;;;;;5053257;28;20454;-66
2022/09/28 01:05:31;;;;;;;7.60;6.90;;;;;;;;;;5054487;28;20462;-66
2022/09/28 01:08:43;;;;;;;7.73;6.77;;;;;;;;;;5052600;28;20615;-65
2022/09/28 01:11:56;;;;;;;10.33;6.50;;;;;;;;;;5054239;28;20544;-65
2022/09/28 01:14:53;;;;;;;7.50;6.80;;;;;;;;;;5054428;28;20442;-65
2022/09/28 01:18:01;;;;;;;7.47;6.77;;;;;;;;;;5044688;28;20830;-64
2022/09/28 01:21:06;;;;;;;8.13;7.33;;;;;;;;;;5050979;28;20541;-65
2022/09/28 01:24:30;;;;;;;8.30;7.00;;;;;;;;;;5048494;28;20504;-65
2022/09/28 01:27:39;;;;;;;8.60;7.30;;;;;;;;;;5050638;28;20508;-66
2022/09/28 01:30:37;;;;;;;7.80;7.10;;;;;;;;;;5046552;28;20450;-66
2022/09/28 01:33:36;;;;;;;7.60;6.70;;;;;;;;;;5047589;28;20477;-66
2022/09/28 01:36:43;;;;;;;7.50;6.80;;;;;;;;;;5048453;28;20499;-66
2022/09/28 01:40:12;;;;;;;7.03;6.40;;;;;;;;;;5049101;28;20453;-65
2022/09/28 01:43:18;;;;;;;7.07;6.47;;;;;;;;;;5031554;28;20472;-65
2022/09/28 01:46:16;;;;;;;7.20;6.60;;;;;;;;;;5053561;28;21012;-66
2022/09/28 01:49:19;;;;;;;7.27;6.60;;;;;;;;;;5054436;28;20469;-65
2022/09/28 01:52:31;;;;;;;7.57;6.87;;;;;;;;;;5046745;28;20520;-66
2022/09/28 02:02:36;;;;;;;7.20;6.50;;;;;;;;;;5056131;28;20449;-65
2022/09/28 02:05:33;;;;;;;7.60;6.90;;;;;;;;;;5057865;28;20871;-65
2022/09/28 02:08:34;;;;;;;8.00;7.27;;;;;;;;;;5057797;28;20507;-65
2022/09/28 02:12:01;;;;;;;7.50;6.80;;;;;;;;;;5058970;28;20511;-65
2022/09/28 02:15:14;;;;;;;7.20;6.50;;;;;;;;;;5059893;28;20490;-64
2022/09/28 02:18:18;;;;;;;7.07;6.47;;;;;;;;;;5057203;28;20481;-66
2022/09/28 02:21:37;;;;;;;8.73;7.27;;;;;;;;;;5059532;28;20996;-65
2022/09/28 02:24:42;;;;;;;6.70;6.10;;;;;;;;;;5034208;28;20973;-66
2022/09/28 02:27:58;;;;;;;7.93;7.20;;;;;;;;;;5050822;28;20477;-66
2022/09/28 02:30:52;;;;;;;7.90;7.10;;;;;;;;;;5052661;28;20446;-65
2022/09/28 02:33:50;;;;;;;7.57;6.87;;;;;;;;;;5054092;28;21005;-65
2022/09/28 02:36:58;;;;;;;8.30;7.10;;;;;;;;;;5047016;28;20831;-65
2022/09/28 02:40:03;;;;;;;8.17;7.37;;;;;;;;;;5053394;28;20461;-66
2022/09/28 02:43:09;;;;;;;8.10;7.40;;;;;;;;;;5054071;28;20477;-65
2022/09/28 02:46:13;;;;;;;7.17;6.57;;;;;;;;;;5050690;28;20477;-65
2022/09/28 02:49:21;;;;;;;7.80;7.00;;;;;;;;;;5056941;28;20984;-65
2022/09/28 02:52:24;;;;;;;7.80;7.10;;;;;;;;;;5047821;28;21382;-64
2022/09/28 02:55:43;;;;;;;7.93;7.13;;;;;;;;;;5046211;28;20565;-65
2022/09/28 02:58:46;;;;;;;7.73;6.93;;;;;;;;;;5050814;28;20466;-65
2022/09/28 03:01:58;;;;;;;7.80;7.10;;;;;;;;;;5055063;28;20499;-65
2022/09/28 03:05:07;;;;;;;8.00;7.30;;;;;;;;;;5055929;28;20450;-66
2022/09/28 03:08:04;;;;;;;7.37;6.70;;;;;;;;;;5055284;28;20482;-66
2022/09/28 03:11:13;;;;;;;8.10;7.30;;;;;;;;;;5055319;28;20465;-65
2022/09/28 03:14:10;;;;;;;7.90;7.20;;;;;;;;;;5055806;28;20477;-65
2022/09/28 03:17:05;;;;;;;8.47;7.67;;;;;;;;;;5056559;28;20480;-63
2022/09/28 03:20:10;;;;;;;;;;;;;;;;;;;;;
2022/09/28 03:23:20;;;;;;;10.03;7.93;;;;;;;;;;5053335;28;21061;-65
2022/09/28 03:29:50;;;;;;;7.37;6.67;;;;;;;;;;5045173;28;20450;-64
2022/09/28 03:32:49;;;;;;;11.07;7.27;;;;;;;;;;5049182;28;20453;-65
2022/09/28 03:35:58;;;;;;;7.40;6.70;;;;;;;;;;5046318;28;20467;-64
2022/09/28 03:38:59;;;;;;;7.60;7.00;;;;;;;;;;5050375;28;20588;-65
2022/09/28 03:42:09;;;;;;;6.80;6.10;;;;;;;;;;5052685;28;20870;-66
2022/09/28 03:45:22;;;;;;;7.40;6.80;;;;;;;;;;5045842;28;20574;-64
2022/09/28 03:48:27;;;;;;;8.27;7.47;;;;;;;;;;5046030;28;20497;-65
2022/09/28 03:51:43;;;;;;;7.80;7.00;;;;;;;;;;5034062;28;20472;-63
2022/09/28 03:54:49;;;;;;;8.63;7.23;;;;;;;;;;5050259;28;20461;-65
2022/09/28 03:57:56;;;;;;;9.63;7.77;;;;;;;;;;5051563;28;20482;-66
2022/09/28 04:00:53;;;;;;;7.43;6.73;;;;;;;;;;5061461;28;20453;-65
2022/09/28 04:04:14;;;;;;;7.53;6.83;;;;;;;;;;5050303;28;20490;-65
2022/09/28 04:07:17;;;;;;;7.30;6.60;;;;;;;;;;5052805;28;20853;-66
2022/09/28 04:10:24;;;;;;;9.13;8.17;;;;;;;;;;5052678;28;20462;-66
2022/09/28 04:13:33;;;;;;;8.27;7.47;;;;;;;;;;5058926;28;20534;-66
2022/09/28 04:16:36;;;;;;;8.10;7.30;;;;;;;;;;5052289;28;20486;-66
2022/09/28 04:19:51;;;;;;;;;;;;;;;;;;;;;
2022/09/28 04:23:01;;;;;;;7.87;7.07;;;;;;;;;;5053741;28;20469;-65
2022/09/28 04:26:04;;;;;;;8.17;7.37;;;;;;;;;;5048315;28;20487;-66
2022/09/28 04:29:17;;;;;;;8.60;7.63;;;;;;;;;;5054956;28;20449;-65
2022/09/28 04:32:26;;;;;;;9.47;7.87;;;;;;;;;;5046472;28;22838;-66
2022/09/28 04:35:28;;;;;;;9.10;7.40;;;;;;;;;;5043691;28;20973;-65
2022/09/28 04:38:22;;;;;;;7.37;6.67;;;;;;;;;;5041902;28;20485;-65
2022/09/28 04:41:46;;;;;;;8.90;8.00;;;;;;;;;;5044954;28;21002;-65
2022/09/28 04:44:48;;;;;;;9.93;8.53;;;;;;;;;;5043139;28;20473;-64
2022/09/28 04:47:53;;;;;;;;;;;;;;;;;;;;;
2022/09/28 04:50:54;;;;;;;9.03;8.13;;;;;;;;;;5017510;28;21536;-66
2022/09/28 04:53:51;;;;;;;7.93;7.17;;;;;;;;;;5026873;28;20462;-66
2022/09/28 04:56:56;;;;;;;8.30;7.37;;;;;;;;;;5026408;28;20483;-66
2022/09/28 05:00:10;;;;;;;8.90;8.00;;;;;;;;;;5028084;28;20459;-66
2022/09/28 05:03:09;;;;;;;8.73;7.83;;;;;;;;;;5032477;28;20469;-66
2022/09/28 05:05:57;;;;;;;10.50;8.00;;;;;;;;;;5029439;28;21028;-65
2022/09/28 05:09:10;;;;;;;;;;;;;;;;;;;;;
2022/09/28 05:12:12;;;;;;;8.70;7.90;;;;;;;;;;5024394;28;20455;-65
2022/09/28 05:15:18;;;;;;;8.73;7.93;;;;;;;;;;5028517;28;20548;-65
2022/09/28 05:18:22;;;;;;;13.43;11.30;;;;;;;;;;5047752;28;20488;-65
2022/09/28 05:21:23;;;;;;;16.67;12.87;;;;;;;;;;5054942;28;20972;-65
2022/09/28 05:24:25;;;;;;;19.50;14.70;;;;;;;;;;5046826;28;20489;-65
2022/09/28 05:27:21;;;;;;;20.63;15.07;;;;;;;;;;5051820;28;21031;-64
2022/09/28 05:30:21;;;;;;;21.77;14.40;;;;;;;;;;5050468;28;20481;-65
2022/09/28 05:33:38;;;;;;;21.37;14.60;;;;;;;;;;5054495;28;20473;-65
2022/09/28 05:36:57;;;;;;;21.20;14.27;;;;;;;;;;5054648;28;20482;-64
2022/09/28 05:39:56;;;;;;;24.47;18.13;;;;;;;;;;5051938;28;20468;-65
2022/09/28 05:43:06;;;;;;;21.33;15.87;;;;;;;;;;5060437;28;20472;-65
2022/09/28 05:46:11;;;;;;;23.47;17.80;;;;;;;;;;5050142;28;20543;-65
2022/09/28 05:49:23;;;;;;;23.30;17.77;;;;;;;;;;5049897;28;21430;-65
2022/09/28 05:52:28;;;;;;;24.27;19.00;;;;;;;;;;5058831;28;21036;-66
2022/09/28 05:55:23;;;;;;;24.83;19.30;;;;;;;;;;5060379;28;20460;-65
2022/09/28 05:58:33;;;;;;;25.83;19.10;;;;;;;;;;5057830;28;20474;-65
2022/09/28 06:01:25;;;;;;;21.47;17.70;;;;;;;;;;5062126;28;20936;-65
2022/09/28 06:04:20;;;;;;;24.97;17.67;;;;;;;;;;5043800;28;20480;-66
2022/09/28 06:07:08;;;;;;;26.37;20.13;;;;;;;;;;5054556;28;21105;-64
2022/09/28 06:10:01;;;;;;;25.83;19.60;;;;;;;;;;5063023;28;20473;-66
2022/09/28 06:12:55;;;;;;;23.43;18.57;;;;;;;;;;5060489;28;20477;-66
2022/09/28 06:15:46;;;;;;;23.57;18.50;;;;;;;;;;5060388;28;20553;-65
2022/09/28 06:18:35;;;;;;;23.80;19.10;;;;;;;;;;5059708;28;20485;-66
2022/09/28 06:21:27;;;;;;;24.53;19.47;;;;;;;;;;5062281;28;20962;-66
2022/09/28 06:24:18;;;;;;;23.40;18.23;;;;;;;;;;5068776;22;20493;-76
2022/09/28 06:27:09;;;;;;;23.00;19.07;;;;;;;;;;5042902;28;20478;-74
2022/09/28 06:30:06;;;;;;;26.47;19.47;;;;;;;;;;5041133;28;20853;-76
2022/09/28 06:33:03;;;;;;;26.43;19.20;;;;;;;;;;5033833;28;20444;-74
2022/09/28 06:35:55;;;;;;;25.57;19.80;;;;;;;;;;5011657;28;21007;-75
2022/09/28 06:38:53;;;;;;;25.87;19.30;;;;;;;;;;5019005;28;20476;-74
2022/09/28 06:41:47;;;;;;;25.37;18.30;;;;;;;;;;5017487;28;20862;-74
2022/09/28 06:44:38;;;;;;;23.70;18.27;;;;;;;;;;5015864;28;20611;-74
2022/09/28 06:47:30;;;;;;;29.17;18.83;;;;;;;;;;5013965;28;20876;-74
2022/09/28 06:50:19;;;;;;;25.90;19.50;;;;;;;;;;5013430;28;20456;-74
2022/09/28 06:53:13;;;;;;;25.97;18.80;;;;;;;;;;5016933;28;21006;-76
2022/09/28 06:56:06;;;;;;;27.63;19.20;;;;;;;;;;5016919;28;20482;-74
2022/09/28 06:59:06;;;;;;;23.90;17.90;;;;;;;;;;5011705;28;20638;-76
2022/09/28 07:01:56;;;;;;;26.80;19.60;;;;;;;;;;5015305;28;20479;-74
2022/09/28 07:04:47;;;;;;;21.00;17.27;;;;;;;;;;5013872;28;20491;-76
2022/09/28 07:07:39;;;;;;;24.53;19.07;;;;;;;;;;5011634;28;20617;-74
2022/09/28 07:10:31;;;;;;;24.53;17.90;;;;;;;;;;5021978;28;20452;-75
2022/09/28 07:13:21;;;;;;;26.50;17.97;;;;;;;;;;5023305;28;20471;-75
2022/09/28 07:16:36;;;;;;;24.60;17.97;;;;;;;;;;5011147;28;20562;-74
2022/09/28 07:19:51;;;;;;;25.97;17.63;;;;;;;;;;5012384;28;21462;-74
2022/09/28 07:22:46;;;;;;;22.67;17.40;;;;;;;;;;5014304;28;20448;-74
2022/09/28 07:25:44;;;;;;;28.80;19.43;;;;;;;;;;5014785;28;21003;-74
2022/09/28 07:28:40;;;;;;;30.50;21.37;;;;;;;;;;5017348;28;20444;-74
2022/09/28 07:31:34;;;;;;;26.10;18.37;;;;;;;;;;5017675;28;20971;-75
2022/09/28 07:34:24;;;;;;;23.20;17.30;;;;;;;;;;5016804;28;20484;-74
2022/09/28 07:37:25;;;;;;;27.47;17.90;;;;;;;;;;5015021;28;20480;-74
2022/09/28 07:43:23;;;;;;;21.70;16.50;;;;;;;;;;5022398;28;20439;-75
2022/09/28 07:46:16;;;;;;;22.30;17.17;;;;;;;;;;5014747;28;20475;-75
2022/09/28 07:49:10;;;;;;;24.10;16.60;;;;;;;;;;5017858;28;20456;-75
2022/09/28 07:52:02;;;;;;;24.00;17.47;;;;;;;;;;5015030;28;20470;-75
2022/09/28 07:54:56;;;;;;;24.30;18.87;;;;;;;;;;5020904;28;20467;-74
2022/09/28 07:57:47;;;;;;;26.90;19.87;;;;;;;;;;5021992;28;20478;-74
2022/09/28 08:00:47;;;;;;;28.57;19.93;;;;;;;;;;5029726;28;20490;-74
2022/09/28 08:03:44;;;;;;;26.63;19.13;;;;;;;;;;5019406;28;20459;-75
2022/09/28 08:06:39;;;;;;;27.37;20.10;;;;;;;;;;5013935;28;20471;-74
2022/09/28 08:09:34;;;;;;;27.70;20.23;;;;;;;;;;5020045;28;20820;-75
2022/09/28 08:12:24;;;;;;;31.00;21.47;;;;;;;;;;5017171;28;20464;-75
2022/09/28 08:15:16;;;;;;;23.60;18.50;;;;;;;;;;5024557;28;20483;-74
2022/09/28 08:18:06;;;;;;;27.77;19.50;;;;;;;;;;5023053;28;20451;-74
2022/09/28 08:24:05;;;;;;;27.27;19.83;;;;;;;;;;5017016;28;20999;-74
2022/09/28 08:26:55;;;;;;;29.27;21.57;;;;;;;;;;5023737;28;20599;-75
2022/09/28 08:29:57;;;;;;;31.37;21.87;;;;;;;;;;5004799;28;21055;-74
2022/09/28 08:32:51;;;;;;;28.57;21.20;;;;;;;;;;5011855;28;20435;-75
2022/09/28 08:35:40;;;;;;;24.90;19.70;;;;;;;;;;5007210;28;20498;-74
2022/09/28 08:38:33;;;;;;;27.90;20.20;;;;;;;;;;5014502;28;20460;-74
2022/09/28 08:41:27;;;;;;;27.23;20.90;;;;;;;;;;5014945;28;21006;-76
2022/09/28 08:44:23;;;;;;;29.57;20.57;;;;;;;;;;5010840;28;20562;-75
2022/09/28 08:48:42;;;;;;;31.23;20.67;;;;;;;;;;5012911;28;20849;-76
2022/09/28 08:50:29;;;;;;;27.37;19.50;;;;;;;;;;5015442;28;20453;-74
2022/09/28 08:53:33;;;;;;;30.27;21.20;;;;;;;;;;5019231;28;20458;-75
2022/09/28 08:59:45;;;;;;;26.47;18.97;;;;;;;;;;5011537;28;20468;-75
2022/09/28 09:02:42;;;;;;;26.83;19.23;;;;;;;;;;5015441;28;20490;-76
2022/09/28 09:05:45;;;;;;;27.57;20.70;;;;;;;;;;5012976;28;21456;-75
2022/09/28 09:08:40;;;;;;;23.57;18.40;;;;;;;;;;5016910;28;20455;-76
2022/09/28 09:11:39;;;;;;;22.37;18.57;;;;;;;;;;5009592;28;20451;-76
2022/09/28 09:14:57;;;;;;;25.17;17.70;;;;;;;;;;5015827;28;20481;-75
2022/09/28 09:17:50;;;;;;;23.80;17.67;;;;;;;;;;5038576;28;20478;-75
2022/09/28 09:20:46;;;;;;;27.37;18.70;;;;;;;;;;5036845;28;20478;-76
2022/09/28 09:23:38;;;;;;;21.07;17.17;;;;;;;;;;5039989;28;21060;-75
2022/09/28 09:26:38;;;;;;;20.30;15.73;;;;;;;;;;5034952;28;20481;-76
2022/09/28 09:29:33;;;;;;;20.90;17.80;;;;;;;;;;5035476;28;20832;-74
2022/09/28 09:32:34;;;;;;;21.70;17.70;;;;;;;;;;5042034;28;20505;-75
2022/09/28 09:35:31;;;;;;;19.00;15.50;;;;;;;;;;5041507;28;20470;-76
2022/09/28 09:38:30;;;;;;;20.03;15.43;;;;;;;;;;5041350;28;20446;-76
2022/09/28 09:41:26;;;;;;;19.03;15.47;;;;;;;;;;5038408;28;20485;-75
2022/09/28 09:44:23;;;;;;;22.40;16.20;;;;;;;;;;5038876;28;20486;-75
2022/09/28 09:47:18;;;;;;;17.90;13.77;;;;;;;;;;5036242;28;20471;-76
2022/09/28 09:50:14;;;;;;;20.03;14.80;;;;;;;;;;5040561;28;20604;-75
2022/09/28 09:53:12;;;;;;;19.60;14.23;;;;;;;;;;5043372;28;20446;-75
2022/09/28 09:56:03;;;;;;;20.47;15.30;;;;;;;;;;5050380;28;20477;-75
2022/09/28 09:58:53;;;;;;;18.63;16.07;;;;;;;;;;5052019;28;20473;-74
2022/09/28 10:01:45;;;;;;;21.03;15.97;;;;;;;;;;5039974;28;20482;-74
2022/09/28 10:04:42;;;;;;;17.20;14.20;;;;;;;;;;5029388;28;20977;-75
2022/09/28 10:07:34;;;;;;;18.20;15.30;;;;;;;;;;5036274;28;20483;-75
2022/09/28 10:10:26;;;;;;;17.87;13.60;;;;;;;;;;5044527;28;20455;-76
2022/09/28 10:13:25;;;;;;;15.90;12.30;;;;;;;;;;5037082;28;20546;-74
2022/09/28 10:16:19;;;;;;;19.77;13.97;;;;;;;;;;5042811;28;20478;-74
2022/09/28 10:19:11;;;;;;;13.37;11.53;;;;;;;;;;5042378;28;20473;-75
2022/09/28 10:22:01;;;;;;;14.80;11.70;;;;;;;;;;5048858;28;20469;-74
2022/09/28 10:24:57;;;;;;;14.80;12.07;;;;;;;;;;5044175;28;20497;-75
2022/09/28 10:27:51;;;;;;;15.20;12.90;;;;;;;;;;5037683;28;20496;-75
2022/09/28 10:30:40;;;;;;;17.03;12.80;;;;;;;;;;5030599;28;20568;-76
2022/09/28 10:33:36;;;;;;;16.17;13.10;;;;;;;;;;5034903;28;21397;-74
2022/09/28 10:36:26;;;;;;;16.40;12.87;;;;;;;;;;5032341;28;21027;-75
2022/09/28 10:39:41;;;;;;;17.77;12.80;;;;;;;;;;5030352;28;20448;-75
2022/09/28 10:42:32;;;;;;;13.67;11.30;;;;;;;;;;5022367;28;20463;-74
2022/09/28 10:45:22;;;;;;;16.10;12.00;;;;;;;;;;5033985;28;20497;-75
2022/09/28 10:48:17;;;;;;;11.60;9.30;;;;;;;;;;5028993;28;20463;-75
2022/09/28 10:51:08;;;;;;;11.73;8.67;;;;;;;;;;5033650;28;20448;-75
2022/09/28 10:54:01;;;;;;;9.27;8.27;;;;;;;;;;5036102;28;20616;-75
2022/09/28 10:56:55;;;;;;;9.30;7.77;;;;;;;;;;5034290;28;20482;-75
2022/09/28 10:59:45;;;;;;;8.67;7.67;;;;;;;;;;5038085;28;20966;-75
2022/09/28 11:02:40;;;;;;;8.80;7.30;;;;;;;;;;5037246;28;21040;-77
2022/09/28 11:05:46;;;;;;;8.30;7.33;;;;;;;;;;5029655;28;20479;-75
2022/09/28 11:08:42;;;;;;;8.23;7.30;;;;;;;;;;5033530;28;20992;-74
2022/09/28 11:11:40;;;;;;;7.17;6.33;;;;;;;;;;5032970;28;20462;-74
2022/09/28 11:14:35;;;;;;;10.10;6.97;;;;;;;;;;5032041;28;20482;-74
2022/09/28 11:17:32;;;;;;;6.70;5.67;;;;;;;;;;5032326;28;20981;-74
2022/09/28 11:20:29;;;;;;;6.77;6.17;;;;;;;;;;5031519;28;20465;-75
2022/09/28 11:23:23;;;;;;;6.10;5.47;;;;;;;;;;5033125;28;20462;-75
2022/09/28 11:26:19;;;;;;;5.20;4.60;;;;;;;;;;5027671;28;20558;-74
2022/09/28 11:29:30;;;;;;;4.20;3.80;;;;;;;;;;5029024;28;20462;-75
2022/09/28 11:32:22;;;;;;;4.33;3.93;;;;;;;;;;5035041;28;20537;-75
2022/09/28 11:35:19;;;;;;;5.77;3.70;;;;;;;;;;5028898;28;21033;-75
2022/09/28 11:38:19;;;;;;;3.40;3.10;;;;;;;;;;5033842;28;20470;-75
2022/09/28 11:41:32;;;;;;;3.73;2.93;;;;;;;;;;5031551;28;20908;-75
2022/09/28 11:44:36;;;;;;;4.10;3.30;;;;;;;;;;5033803;28;20862;-75
2022/09/28 11:47:46;;;;;;;4.43;3.07;;;;;;;;;;5037793;28;20490;-75
2022/09/28 11:50:41;;;;;;;3.43;2.97;;;;;;;;;;5030389;28;20559;-75
2022/09/28 11:53:35;;;;;;;4.03;3.63;;;;;;;;;;5037936;28;20474;-76
2022/09/28 11:56:30;;;;;;;4.00;3.57;;;;;;;;;;5029940;28;20486;-73
2022/09/28 11:59:32;;;;;;;3.23;2.73;;;;;;;;;;5042997;28;20813;-75
2022/09/28 12:02:36;;;;;;;2.17;1.97;;;;;;;;;;5040399;28;20469;-75
2022/09/28 12:05:40;;;;;;;2.80;2.60;;;;;;;;;;5034181;28;20497;-75
2022/09/28 12:08:32;;;;;;;2.43;2.23;;;;;;;;;;5045275;28;20507;-74
2022/09/28 12:11:31;;;;;;;4.07;2.90;;;;;;;;;;5034432;28;20455;-74
2022/09/28 12:14:22;;;;;;;4.60;2.90;;;;;;;;;;5030862;28;20844;-76
2022/09/28 12:17:15;;;;;;;2.47;2.27;;;;;;;;;;5040193;28;20485;-75
2022/09/28 12:20:14;;;;;;;2.43;2.13;;;;;;;;;;5035051;28;20454;-76
2022/09/28 12:23:16;;;;;;;2.30;2.10;;;;;;;;;;5039996;28;20508;-75
2022/09/28 12:26:11;;;;;;;2.33;1.70;;;;;;;;;;5091934;23;20486;-72
2022/09/28 12:29:06;;;;;;;2.40;1.23;;;;;;;;;;5095563;28;20458;-71
2022/09/28 12:31:59;;;;;;;2.23;1.77;;;;;;;;;;5099359;28;20460;-71
2022/09/28 12:34:49;;;;;;;1.53;1.40;;;;;;;;;;5094704;28;20468;-72
2022/09/28 12:37:43;;;;;;;1.80;1.70;;;;;;;;;;5091452;28;20472;-70
2022/09/28 12:40:40;;;;;;;2.03;1.27;;;;;;;;;;5090997;28;20483;-71
2022/09/28 12:43:46;;;;;;;1.60;1.30;;;;;;;;;;5088486;28;20834;-71
2022/09/28 12:46:47;;;;;;;1.50;1.20;;;;;;;;;;5095939;28;20471;-71
2022/09/28 12:49:48;;;;;;;1.73;1.60;;;;;;;;;;5094516;28;21230;-71
2022/09/28 12:53:13;;;;;;;1.50;1.40;;;10.80;99.90;;;;;;5100955;28;20546;-71
2022/09/28 12:56:05;;;;;;;2.30;1.30;;;24.00;99.90;;;;;;5094576;28;20479;-72
2022/09/28 12:59:15;;;;;;;1.23;0.90;;;24.30;99.90;;;;;;5091127;28;22498;-72
2022/09/28 13:02:43;;;;;;;3.47;1.00;;;24.90;96.10;;;;;;5100762;28;20479;-72
2022/09/28 13:06:08;;;;;;;3.30;3.00;;;24.80;96.00;;;;;;5095276;28;20476;-71
2022/09/28 13:09:14;;;;;;;2.13;1.10;;;24.80;94.80;;;;;;5092429;28;20455;-72
2022/09/28 13:12:32;;;;;;;1.23;1.13;;;25.10;94.70;;;;;;5081587;28;20540;-72
2022/09/28 13:15:35;;;;;;;2.63;2.40;;;25.30;95.60;;;;;;5091909;28;20470;-70
2022/09/28 13:18:34;;;;;;;58.20;41.90;;;25.40;91.10;;;;;;5088903;28;20452;-71
2022/09/28 13:21:41;;;;;;;13.10;9.30;;;25.50;92.60;;;;;;5087471;28;20486;-70
2022/09/28 13:24:36;;;;;;;5.63;4.13;;;25.40;93.00;;;;;;5095269;28;20470;-70
2022/09/28 13:27:33;;;;;;;2.60;2.40;;;25.40;91.20;;;;;;5095611;28;20478;-71
2022/09/28 13:30:25;;;;;;;4.87;4.10;;;24.90;93.30;;;;;;5081788;28;20524;-71
2022/09/28 13:33:21;;;;;;;4.43;4.00;;;24.80;94.40;;;;;;5080589;28;21861;-71
2022/09/28 13:36:37;;;;;;;1.70;1.60;;;24.20;93.10;;;;;;5080087;28;20532;-71
2022/09/28 13:39:47;;;;;;;2.13;1.43;;;23.70;97.20;;;;;;5094359;28;20440;-71
2022/09/28 13:43:01;;;;;;;1.50;1.10;;;23.60;96.90;;;;;;5093702;28;20475;-71
2022/09/28 13:45:55;;;;;;;1.90;1.70;;;23.40;94.10;;;;;;5093295;28;20471;-71
2022/09/28 13:48:56;;;;;;;1.40;1.30;;;23.10;99.40;;;;;;5097938;28;20455;-74
2022/09/28 13:51:57;;;;;;;2.20;1.30;;;23.10;99.10;;;;;;5093248;28;20455;-76
2022/09/28 13:55:04;;;;;;;1.47;1.10;;;22.60;96.50;;;;;;5097047;28;20551;-75
2022/09/28 13:57:59;;;;;;;1.40;1.30;;;21.60;99.90;;;;;;5100279;27;20479;-75
2022/09/28 14:00:50;;;;;;;2.03;1.50;;;20.90;99.90;;;;;;5101553;28;20470;-77
2022/09/28 14:03:52;;;;;;;1.30;1.20;;;20.30;99.90;;;;;;5103279;28;20962;-75
2022/09/28 14:06:47;;;;;;;1.80;1.37;;;20.00;99.90;;;;;;5098618;28;20499;-74
2022/09/28 14:09:47;;;;;;;1.77;1.60;;;19.70;99.90;;;;;;5099841;27;20608;-76
2022/09/28 14:13:02;;;;;;;1.60;1.50;;;19.20;99.90;;;;;;5095499;28;20454;-77
2022/09/28 14:16:26;;;;;;;1.87;1.43;;;18.60;99.90;;;;;;5096705;27;20505;-76
2022/09/28 14:19:20;;;;;;;2.07;1.50;;;17.90;99.90;;;;;;5098319;28;20460;-76
2022/09/28 14:22:25;;;;;;;1.57;1.40;;;17.60;99.90;;;;;;5097240;28;20472;-76
2022/09/28 14:25:23;;;;;;;2.80;1.60;;;17.30;99.90;;;;;;5100306;27;20492;-75
2022/09/28 14:28:41;;;;;;;1.90;1.40;;;17.30;99.90;;;;;;5099651;28;20968;-75
2022/09/28 14:31:48;;;;;;;1.40;1.30;;;17.10;99.90;;;;;;5104733;28;20443;-75
2022/09/28 14:34:43;;;;;;;1.40;1.30;;;17.00;99.90;;;;;;5096388;28;20471;-77
2022/09/28 14:41:12;;;;;;;2.53;1.77;;;16.80;99.90;;;;;;5107299;28;20444;-76
2022/09/28 14:44:15;;;;;;;1.90;1.60;;;16.80;99.90;;;;;;5101139;28;20468;-73
2022/09/28 14:47:33;;;;;;;1.70;1.30;;;16.80;99.90;;;;;;5104016;28;20467;-76
2022/09/28 14:50:24;;;;;;;1.97;1.60;;;16.60;99.90;;;;;;5100222;28;20449;-76
2022/09/28 14:53:20;;;;;;;1.50;1.40;;;16.50;99.90;;;;;;5099565;28;20444;-76
2022/09/28 14:56:14;;;;;;;2.80;1.53;;;16.40;99.90;;;;;;5101473;27;21016;-76
2022/09/28 14:59:08;;;;;;;2.10;1.77;;;16.30;99.90;;;;;;5104501;28;20463;-77
2022/09/28 15:02:06;;;;;;;2.40;1.67;;;16.20;99.90;;;;;;5096486;28;20452;-74
2022/09/28 15:05:15;;;;;;;2.47;1.30;;;16.00;99.90;;;;;;5095140;28;20497;-75
2022/09/28 15:08:10;;;;;;;1.60;1.23;;;15.80;99.90;;;;;;5104308;28;20496;-74
2022/09/28 15:11:00;;;;;;;2.20;1.40;;;15.70;99.90;;;;;;5100509;28;20452;-76
2022/09/28 15:13:52;;;;;;;1.77;1.57;;;15.60;99.90;;;;;;5100595;28;20449;-79
2022/09/28 15:16:54;;;;;;;1.57;1.30;;;15.60;99.90;;;;;;5085922;28;20614;-76
2022/09/28 15:19:53;;;;;;;2.37;1.80;;;15.50;99.90;;;;;;5097796;28;20455;-75
2022/09/28 15:22:56;;;;;;;1.47;1.27;;;15.40;99.90;;;;;;5100641;27;20484;-74
2022/09/28 15:25:54;;;;;;;1.80;1.60;;;15.20;99.90;;;;;;5103201;28;20463;-74
2022/09/28 15:28:46;;;;;;;2.20;1.83;;;15.20;99.90;;;;;;5092544;28;20472;-75
2022/09/28 15:31:39;;;;;;;2.03;1.73;;;15.10;99.90;;;;;;5099156;28;20452;-74
2022/09/28 15:34:53;;;;;;;3.90;2.10;;;15.00;99.90;;;;;;5095026;28;20475;-74
2022/09/28 15:37:45;;;;;;;2.83;2.60;;;15.00;99.90;;;;;;5098222;27;20479;-73
2022/09/28 15:40:37;;;;;;;5.50;2.70;;;14.80;99.90;;;;;;5097435;28;20460;-74
2022/09/28 15:43:32;;;;;;;2.47;2.23;;;14.70;99.90;;;;;;5094703;28;20469;-73
2022/09/28 15:46:20;;;;;;;2.33;2.13;;;14.50;99.90;;;;;;5090741;28;21176;-74
2022/09/28 15:49:25;;;;;;;2.53;2.07;;;14.50;99.90;;;;;;5095153;28;20452;-77
2022/09/28 15:52:27;;;;;;;3.60;2.30;;;14.50;99.90;;;;;;5101448;28;20471;-77
2022/09/28 15:55:22;;;;;;;1.50;1.40;;;14.40;99.90;;;;;;5096384;28;20468;-76
2022/09/28 15:58:26;;;;;;;1.67;1.57;;;14.30;99.90;;;;;;5102917;28;20455;-77
2022/09/28 16:01:35;;;;;;;1.63;1.30;;;14.20;99.90;;;;;;5097685;28;20469;-74
2022/09/28 16:04:38;;;;;;;2.10;1.50;;;14.20;99.90;;;;;;5096029;28;20859;-74
2022/09/28 16:07:32;;;;;;;1.70;1.60;;;14.10;99.90;;;;;;5092162;28;20472;-74
2022/09/28 16:10:32;;;;;;;2.37;1.90;;;14.00;99.90;;;;;;5098875;28;20448;-74
2022/09/28 16:13:25;;;;;;;2.10;1.80;;;13.90;99.90;;;;;;5102576;28;20521;-74
2022/09/28 16:16:16;;;;;;;1.87;1.77;;;13.80;99.90;;;;;;5097473;28;20468;-74
2022/09/28 16:19:07;;;;;;;2.87;2.10;;;13.80;99.90;;;;;;5103177;27;20440;-74
2022/09/28 16:21:59;;;;;;;2.73;2.30;;;13.70;99.90;;;;;;5106637;28;21363;-73
2022/09/28 16:24:54;;;;;;;2.40;2.23;;;13.60;99.90;;;;;;5095117;27;20476;-75
2022/09/28 16:27:47;;;;;;;3.60;2.70;;;13.40;99.90;;;;;;5101435;28;20487;-74
2022/09/28 16:31:00;;;;;;;2.63;2.43;;;13.30;99.90;;;;;;5103947;28;20452;-74
2022/09/28 16:33:57;;;;;;;2.73;2.53;;;13.30;99.90;;;;;;5099753;28;20466;-75
2022/09/28 16:36:51;;;;;;;2.80;2.40;;;13.20;99.90;;;;;;5102059;27;21012;-75
2022/09/28 16:39:40;;;;;;;3.10;2.80;;;13.20;99.90;;;;;;5102282;28;20452;-74
2022/09/28 16:42:28;;;;;;;3.33;2.63;;;13.10;99.90;;;;;;5097411;28;20814;-73
2022/09/28 16:45:20;;;;;;;2.80;2.60;;;13.00;99.90;;;;;;5102943;28;21104;-74
2022/09/28 16:48:15;;;;;;;3.03;2.80;;;12.90;99.90;;;;;;5101437;28;20470;-74
2022/09/28 16:51:05;;;;;;;3.20;2.90;;;12.80;99.90;;;;;;5098693;28;20819;-74
2022/09/28 16:57:02;;;;;;;3.33;3.03;;;12.60;99.90;;;;;;5094563;28;20472;-74
2022/09/28 16:59:55;;;;;;;3.57;2.73;;;12.50;99.90;;;;;;5097209;28;20490;-73
2022/09/28 17:02:47;;;;;;;3.63;3.33;;;12.40;99.90;;;;;;5076939;28;20455;-76
2022/09/28 17:05:46;;;;;;;4.23;3.83;;;12.30;99.90;;;;;;5093625;28;20566;-73
2022/09/28 17:08:35;;;;;;;4.60;4.20;;;12.20;99.90;;;;;;5087358;28;20532;-73
2022/09/28 17:11:23;;;;;;;4.63;4.23;;;12.10;99.90;;;;;;5099116;28;20593;-73
2022/09/28 17:14:12;;;;;;;4.93;4.53;;;12.00;99.90;;;;;;5091991;28;20824;-73
2022/09/28 17:17:05;;;;;;;5.60;5.10;;;12.00;99.90;;;;;;5095764;27;20487;-73
2022/09/28 17:19:58;;;;;;;5.47;4.97;;;11.90;99.90;;;;;;5091050;27;20456;-75
2022/09/28 17:22:48;;;;;;;5.37;4.87;;;11.90;99.90;;;;;;5096741;27;20501;-72
2022/09/28 17:25:37;;;;;;;5.70;5.30;;;11.80;99.90;;;;;;5099935;28;20575;-72
2022/09/28 17:28:29;;;;;;;5.60;5.10;;;11.80;99.90;;;;;;5104206;28;20455;-73
2022/09/28 17:31:17;;;;;;;5.37;4.83;;;11.70;99.90;;;;;;5093062;28;20467;-74
2022/09/28 17:34:06;;;;;;;6.20;5.60;;;11.70;99.90;;;;;;5100895;27;20444;-73
2022/09/28 17:36:55;;;;;;;6.00;5.33;;;11.60;99.90;;;;;;5092925;27;20475;-73
2022/09/28 17:39:44;;;;;;;5.70;5.10;;;11.50;99.90;;;;;;5100341;28;20528;-73
2022/09/28 17:42:32;;;;;;;8.00;5.60;;;11.50;99.90;;;;;;5098161;28;20922;-73